Time;durP1;ratioP1;P1;durP2;ratioP2;P2;SDS_P1;SDS_P2;PMS_P1;PMS_P2;Temp;Humidity;BMP_temperature;BMP_pressure;BME280_temperature;BME280_humidity;BME280_pressure;Samples;Min_cycle;Max_cycle;Signal;HPM_P1;HPM_P2
2023/11/21 00:02:11;;;;;;;20.35;11.35;;;;;;;;;;5027438;28;20048;-66
2023/11/21 00:04:37;;;;;;;19.30;11.02;;;;;;;;;;5015532;28;20087;-66
2023/11/21 00:07:05;;;;;;;19.40;11.10;;;;;;;;;;5038830;28;20610;-66
2023/11/21 00:09:32;;;;;;;17.83;10.82;;;;;;;;;;5021145;28;20049;-66
2023/11/21 00:11:59;;;;;;;17.23;9.80;;;;;;;;;;5007870;28;20081;-66
2023/11/21 00:14:25;;;;;;;17.90;10.10;;;;;;;;;;4999027;28;20068;-66
2023/11/21 00:16:51;;;;;;;19.88;11.13;;;;;;;;;;5030955;28;20128;-66
2023/11/21 00:19:18;;;;;;;17.75;10.52;;;;;;;;;;5037254;28;20118;-66
2023/11/21 00:21:44;;;;;;;19.45;11.77;;;;;;;;;;5033086;28;20046;-67
2023/11/21 00:24:13;;;;;;;17.90;10.35;;;;;;;;;;5030170;28;20056;-67
2023/11/21 00:26:40;;;;;;;17.67;11.60;;;;;;;;;;5033033;28;20059;-67
2023/11/21 00:29:10;;;;;;;18.02;10.80;;;;;;;;;;5035317;28;20049;-66
2023/11/21 00:31:37;;;;;;;14.93;9.77;;;;;;;;;;5020450;28;20571;-65
2023/11/21 00:34:05;;;;;;;19.42;10.07;;;;;;;;;;5018422;28;20139;-67
2023/11/21 00:36:32;;;;;;;17.38;9.77;;;;;;;;;;5008957;28;20053;-66
2023/11/21 00:38:59;;;;;;;18.15;10.90;;;;;;;;;;5031003;28;20048;-66
2023/11/21 00:41:27;;;;;;;18.95;11.52;;;;;;;;;;5028240;28;20081;-66
2023/11/21 00:43:54;;;;;;;18.38;11.02;;;;;;;;;;5036771;28;20049;-66
2023/11/21 00:46:21;;;;;;;22.40;11.70;;;;;;;;;;5032082;28;20059;-67
2023/11/21 00:48:47;;;;;;;25.60;13.38;;;;;;;;;;5028053;28;20045;-66
2023/11/21 00:51:14;;;;;;;26.23;13.45;;;;;;;;;;5038969;28;20509;-66
2023/11/21 00:53:40;;;;;;;24.48;13.32;;;;;;;;;;5039623;28;20049;-67
2023/11/21 00:56:08;;;;;;;23.85;13.65;;;;;;;;;;5033598;28;20061;-66
2023/11/21 00:58:35;;;;;;;30.52;14.85;;;;;;;;;;5037498;28;20056;-67
2023/11/21 01:01:03;;;;;;;25.10;14.32;;;;;;;;;;5006030;28;20635;-67
2023/11/21 01:03:30;;;;;;;29.13;14.70;;;;;;;;;;5039969;28;20056;-68
2023/11/21 01:05:56;;;;;;;29.40;14.52;;;;;;;;;;5017287;28;20049;-67
2023/11/21 01:08:24;;;;;;;27.63;14.02;;;;;;;;;;5017896;28;20041;-67
2023/11/21 01:10:50;;;;;;;23.83;12.90;;;;;;;;;;5024340;28;20844;-66
2023/11/21 01:13:16;;;;;;;20.98;11.93;;;;;;;;;;5018790;28;20083;-66
2023/11/21 01:15:43;;;;;;;21.02;11.35;;;;;;;;;;5037952;28;20401;-66
2023/11/21 01:18:09;;;;;;;21.70;12.32;;;;;;;;;;5021446;28;20057;-66
2023/11/21 01:20:35;;;;;;;22.05;11.15;;;;;;;;;;5038528;28;20290;-67
2023/11/21 01:23:02;;;;;;;25.65;14.07;;;;;;;;;;5019408;28;20072;-66
2023/11/21 01:25:29;;;;;;;26.15;13.65;;;;;;;;;;5020750;28;20068;-66
2023/11/21 01:27:56;;;;;;;24.55;12.98;;;;;;;;;;5032612;28;20294;-66
2023/11/21 01:30:22;;;;;;;28.52;14.63;;;;;;;;;;5032237;28;20056;-65
2023/11/21 01:32:48;;;;;;;35.40;15.57;;;;;;;;;;5043596;28;20053;-66
2023/11/21 01:35:15;;;;;;;28.65;14.88;;;;;;;;;;5019665;28;20076;-67
2023/11/21 01:37:41;;;;;;;28.58;15.50;;;;;;;;;;5029975;28;20126;-65
2023/11/21 01:40:13;;;;;;;27.08;15.70;;;;;;;;;;5026778;28;20558;-66
2023/11/21 01:42:40;;;;;;;29.83;14.98;;;;;;;;;;5022402;28;20081;-66
2023/11/21 01:45:07;;;;;;;27.50;14.18;;;;;;;;;;5031221;28;20053;-66
2023/11/21 01:47:34;;;;;;;32.45;15.30;;;;;;;;;;5027175;28;20053;-67
2023/11/21 01:50:00;;;;;;;27.63;14.52;;;;;;;;;;5032054;28;20055;-68
2023/11/21 01:52:27;;;;;;;27.40;15.75;;;;;;;;;;5023258;28;20666;-66
2023/11/21 01:54:54;;;;;;;25.00;14.00;;;;;;;;;;5041964;28;20185;-66
2023/11/21 01:57:20;;;;;;;25.02;13.75;;;;;;;;;;5018670;28;20051;-65
2023/11/21 01:59:48;;;;;;;24.90;14.60;;;;;;;;;;5026825;28;20532;-66
2023/11/21 02:02:15;;;;;;;24.97;15.53;;;;;;;;;;5044188;28;20445;-67
2023/11/21 02:04:42;;;;;;;25.02;12.80;;;;;;;;;;5016011;28;20041;-66
2023/11/21 02:07:08;;;;;;;25.63;15.10;;;;;;;;;;5031932;28;20048;-67
2023/11/21 02:09:38;;;;;;;24.02;13.25;;;;;;;;;;5011838;28;20128;-66
2023/11/21 02:12:05;;;;;;;28.10;14.43;;;;;;;;;;5022784;28;20056;-67
2023/11/21 02:14:31;;;;;;;28.38;14.75;;;;;;;;;;5030589;28;20114;-67
2023/11/21 02:16:58;;;;;;;22.58;13.70;;;;;;;;;;5034649;28;20079;-66
2023/11/21 02:19:28;;;;;;;23.88;14.40;;;;;;;;;;5024867;28;20063;-67
2023/11/21 02:21:56;;;;;;;22.85;13.27;;;;;;;;;;5028608;28;20049;-66
2023/11/21 02:24:22;;;;;;;30.85;13.25;;;;;;;;;;5030077;28;20520;-66
2023/11/21 02:26:51;;;;;;;31.95;14.77;;;;;;;;;;5031828;28;20500;-66
2023/11/21 02:29:18;;;;;;;25.80;13.52;;;;;;;;;;5029971;28;20136;-66
2023/11/21 02:31:48;;;;;;;25.27;13.73;;;;;;;;;;5023505;28;20152;-67
2023/11/21 02:34:15;;;;;;;25.27;13.15;;;;;;;;;;5029713;28;20087;-66
2023/11/21 02:36:42;;;;;;;26.02;12.80;;;;;;;;;;5041066;28;20154;-66
2023/11/21 02:39:09;;;;;;;27.63;14.73;;;;;;;;;;5037482;28;20140;-66
2023/11/21 02:41:36;;;;;;;27.23;14.25;;;;;;;;;;5031286;28;20687;-66
2023/11/21 02:44:02;;;;;;;27.40;14.85;;;;;;;;;;5028381;28;20520;-66
2023/11/21 02:46:29;;;;;;;34.60;14.98;;;;;;;;;;5028078;28;20049;-65
2023/11/21 02:48:56;;;;;;;33.22;15.75;;;;;;;;;;5016738;28;20042;-66
2023/11/21 02:51:22;;;;;;;33.40;17.23;;;;;;;;;;5030380;28;20068;-66
2023/11/21 02:53:50;;;;;;;45.15;18.23;;;;;;;;;;5040125;28;20417;-66
2023/11/21 02:56:17;;;;;;;39.97;17.85;;;;;;;;;;5025297;28;20776;-66
2023/11/21 02:58:44;;;;;;;46.30;16.67;;;;;;;;;;5034572;28;20072;-66
2023/11/21 03:01:10;;;;;;;33.45;16.35;;;;;;;;;;5037541;28;20138;-66
2023/11/21 03:03:39;;;;;;;37.78;17.13;;;;;;;;;;5032727;28;20041;-67
2023/11/21 03:06:06;;;;;;;40.95;17.13;;;;;;;;;;5028783;28;20053;-67
2023/11/21 03:08:33;;;;;;;32.08;15.95;;;;;;;;;;5031383;28;20392;-66
2023/11/21 03:10:59;;;;;;;43.30;16.27;;;;;;;;;;5038434;28;20114;-66
2023/11/21 03:13:25;;;;;;;34.33;16.08;;;;;;;;;;5035508;28;20521;-66
2023/11/21 03:15:52;;;;;;;38.00;16.38;;;;;;;;;;5023222;28;20077;-67
2023/11/21 03:18:18;;;;;;;43.05;17.42;;;;;;;;;;5005520;28;20053;-66
2023/11/21 03:20:47;;;;;;;40.88;17.45;;;;;;;;;;5019392;28;20124;-67
2023/11/21 03:23:15;;;;;;;43.67;17.70;;;;;;;;;;5019612;28;20077;-66
2023/11/21 03:25:42;;;;;;;69.50;18.00;;;;;;;;;;5033402;28;20061;-67
2023/11/21 03:28:08;;;;;;;40.50;17.55;;;;;;;;;;5037209;28;20499;-66
2023/11/21 03:30:35;;;;;;;45.47;17.42;;;;;;;;;;5040520;28;20523;-67
2023/11/21 03:33:01;;;;;;;47.67;17.92;;;;;;;;;;5016455;28;20600;-67
2023/11/21 03:35:28;;;;;;;62.33;17.48;;;;;;;;;;5044161;28;20094;-67
2023/11/21 03:37:54;;;;;;;48.47;17.17;;;;;;;;;;5037595;28;21101;-66
2023/11/21 03:40:21;;;;;;;45.08;17.60;;;;;;;;;;5040279;28;20872;-66
2023/11/21 03:42:47;;;;;;;47.17;17.67;;;;;;;;;;5033410;28;20045;-66
2023/11/21 03:45:14;;;;;;;43.38;17.30;;;;;;;;;;5035161;28;20136;-66
2023/11/21 03:47:41;;;;;;;44.75;16.70;;;;;;;;;;5032460;28;20079;-67
2023/11/21 03:50:09;;;;;;;49.30;17.35;;;;;;;;;;5036484;28;20060;-66
2023/11/21 03:52:35;;;;;;;38.78;15.82;;;;;;;;;;5040679;28;20417;-67
2023/11/21 03:55:02;;;;;;;50.05;17.55;;;;;;;;;;5025089;28;20144;-67
2023/11/21 03:57:28;;;;;;;38.03;15.75;;;;;;;;;;5036559;28;20049;-66
2023/11/21 03:59:55;;;;;;;37.65;15.52;;;;;;;;;;5030146;28;20725;-66
2023/11/21 04:02:21;;;;;;;36.90;15.40;;;;;;;;;;5034141;28;20081;-66
2023/11/21 04:04:48;;;;;;;32.65;16.73;;;;;;;;;;5046205;28;20045;-67
2023/11/21 04:07:14;;;;;;;36.05;16.67;;;;;;;;;;5042662;28;20080;-67
2023/11/21 04:09:41;;;;;;;30.77;16.02;;;;;;;;;;5035036;28;20670;-67
2023/11/21 04:12:09;;;;;;;25.52;14.45;;;;;;;;;;5042246;28;20044;-67
2023/11/21 04:14:35;;;;;;;38.42;15.25;;;;;;;;;;5034644;28;20045;-67
2023/11/21 04:17:03;;;;;;;38.05;14.52;;;;;;;;;;5042079;28;20478;-66
2023/11/21 04:19:30;;;;;;;33.17;15.93;;;;;;;;;;5036049;28;20045;-66
2023/11/21 04:21:56;;;;;;;30.38;15.25;;;;;;;;;;5041199;28;20057;-66
2023/11/21 04:24:23;;;;;;;29.75;15.93;;;;;;;;;;5017556;28;20171;-66
2023/11/21 04:26:49;;;;;;;29.73;16.20;;;;;;;;;;5029513;28;20046;-67
2023/11/21 04:29:15;;;;;;;25.90;14.95;;;;;;;;;;5027918;28;20055;-66
2023/11/21 04:31:42;;;;;;;26.13;14.57;;;;;;;;;;5029835;28;20216;-66
2023/11/21 04:34:09;;;;;;;30.17;14.35;;;;;;;;;;5048223;28;20048;-67
2023/11/21 04:36:35;;;;;;;22.17;13.43;;;;;;;;;;5034789;28;20041;-67
2023/11/21 04:39:02;;;;;;;29.52;14.40;;;;;;;;;;5032815;28;20064;-66
2023/11/21 04:41:28;;;;;;;39.03;15.45;;;;;;;;;;5024390;28;20041;-68
2023/11/21 04:43:54;;;;;;;27.88;14.52;;;;;;;;;;5033983;28;20053;-67
2023/11/21 04:46:21;;;;;;;27.00;14.98;;;;;;;;;;5048252;28;20195;-68
2023/11/21 04:48:48;;;;;;;22.42;12.98;;;;;;;;;;5044585;28;20044;-67
2023/11/21 04:51:14;;;;;;;27.42;14.32;;;;;;;;;;5040099;28;20073;-66
2023/11/21 04:53:41;;;;;;;25.20;13.27;;;;;;;;;;5025055;28;20046;-68
2023/11/21 04:56:07;;;;;;;23.73;14.05;;;;;;;;;;5040481;28;20065;-66
2023/11/21 04:58:33;;;;;;;24.83;13.75;;;;;;;;;;5049543;28;20132;-66
2023/11/21 05:01:00;;;;;;;21.90;13.02;;;;;;;;;;5022129;28;20053;-67
2023/11/21 05:03:29;;;;;;;20.48;12.77;;;;;;;;;;5036022;28;20486;-66
2023/11/21 05:05:56;;;;;;;21.08;13.30;;;;;;;;;;5008982;28;20537;-67
2023/11/21 05:08:22;;;;;;;21.80;12.30;;;;;;;;;;5040696;28;20126;-66
2023/11/21 05:10:49;;;;;;;25.13;13.75;;;;;;;;;;5019085;28;20132;-67
2023/11/21 05:13:17;;;;;;;25.23;14.55;;;;;;;;;;5032127;28;20049;-67
2023/11/21 05:15:44;;;;;;;21.77;13.63;;;;;;;;;;5025955;28;20073;-66
2023/11/21 05:18:11;;;;;;;25.48;13.63;;;;;;;;;;5028778;28;20048;-67
2023/11/21 05:20:39;;;;;;;23.20;13.52;;;;;;;;;;5044046;28;20052;-68
2023/11/21 05:23:05;;;;;;;24.02;13.02;;;;;;;;;;5028355;28;20409;-66
2023/11/21 05:25:32;;;;;;;25.15;14.18;;;;;;;;;;5048565;28;20460;-68
2023/11/21 05:28:01;;;;;;;22.92;13.27;;;;;;;;;;5050218;28;20091;-69
2023/11/21 05:30:27;;;;;;;;;;;;;;;;;;5033132;28;20117;-68
2023/11/21 05:32:54;;;;;;;21.55;12.98;;;;;;;;;;5035158;28;19988;-69
2023/11/21 05:35:21;;;;;;;18.95;12.07;;;;;;;;;;5034944;28;20555;-68
2023/11/21 05:37:47;;;;;;;22.20;13.57;;;;;;;;;;5034687;28;20493;-67
2023/11/21 05:40:14;;;;;;;23.58;13.55;;;;;;;;;;5040095;28;20053;-68
2023/11/21 05:42:40;;;;;;;20.48;12.88;;;;;;;;;;5038000;28;20056;-68
2023/11/21 05:45:11;;;;;;;22.88;12.90;;;;;;;;;;5040293;28;20045;-68
2023/11/21 05:47:41;;;;;;;21.42;12.27;;;;;;;;;;5022786;28;20104;-68
2023/11/21 05:50:14;;;;;;;22.63;14.65;;;;;;;;;;5045938;28;20524;-68
2023/11/21 05:52:41;;;;;;;23.00;12.95;;;;;;;;;;5047087;28;20052;-67
2023/11/21 05:55:08;;;;;;;23.02;13.57;;;;;;;;;;5032669;28;20473;-68
2023/11/21 05:57:37;;;;;;;22.33;13.63;;;;;;;;;;5040282;28;20091;-68
2023/11/21 06:00:11;;;;;;;21.85;13.02;;;;;;;;;;5033364;28;20049;-68
2023/11/21 06:02:38;;;;;;;20.90;12.93;;;;;;;;;;5040194;28;20131;-68
2023/11/21 06:05:06;;;;;;;19.98;12.63;;;;;;;;;;5019458;28;20096;-68
2023/11/21 06:07:32;;;;;;;21.73;12.88;;;;;;;;;;5046049;28;20052;-68
2023/11/21 06:09:59;;;;;;;23.02;14.02;;;;;;;;;;5023153;28;20051;-68
2023/11/21 06:12:25;;;;;;;21.48;12.63;;;;;;;;;;5040313;28;20053;-68
2023/11/21 06:14:51;;;;;;;23.63;14.32;;;;;;;;;;5029464;28;20409;-68
2023/11/21 06:17:18;;;;;;;26.02;14.90;;;;;;;;;;5044995;28;20099;-68
2023/11/21 06:19:45;;;;;;;25.33;14.20;;;;;;;;;;5035942;28;20107;-68
2023/11/21 06:22:12;;;;;;;27.90;15.40;;;;;;;;;;5038694;28;20045;-68
2023/11/21 06:24:38;;;;;;;26.08;15.82;;;;;;;;;;5049565;28;20096;-69
2023/11/21 06:27:04;;;;;;;23.70;13.73;;;;;;;;;;5035710;28;20056;-67
2023/11/21 06:29:31;;;;;;;23.38;14.18;;;;;;;;;;5029802;28;20109;-67
2023/11/21 06:31:58;;;;;;;25.00;13.85;;;;;;;;;;5043527;28;20300;-68
2023/11/21 06:34:25;;;;;;;25.60;14.15;;;;;;;;;;5040720;28;20505;-68
2023/11/21 06:36:51;;;;;;;23.80;13.63;;;;;;;;;;5041021;28;20081;-68
2023/11/21 06:39:17;;;;;;;23.75;14.25;;;;;;;;;;5016567;28;20080;-69
2023/11/21 06:41:44;;;;;;;25.35;14.05;;;;;;;;;;5034237;28;20098;-68
2023/11/21 06:44:10;;;;;;;22.33;13.45;;;;;;;;;;5033810;28;20075;-69
2023/11/21 06:46:39;;;;;;;27.63;14.88;;;;;;;;;;5043769;28;20062;-68
2023/11/21 06:49:06;;;;;;;22.98;13.80;;;;;;;;;;5038394;28;20057;-70
2023/11/21 06:51:32;;;;;;;23.08;14.77;;;;;;;;;;5050842;28;20072;-68
2023/11/21 06:53:59;;;;;;;19.63;12.30;;;;;;;;;;5031304;28;20060;-68
2023/11/21 06:56:25;;;;;;;21.20;14.43;;;;;;;;;;5041073;28;20803;-69
2023/11/21 06:58:54;;;;;;;25.92;14.40;;;;;;;;;;5041205;28;20107;-68
2023/11/21 07:01:21;;;;;;;23.58;14.57;;;;;;;;;;5009706;28;20051;-68
2023/11/21 07:03:47;;;;;;;23.05;14.43;;;;;;;;;;5022977;28;20056;-69
2023/11/21 07:06:14;;;;;;;23.10;14.15;;;;;;;;;;5032906;28;20059;-69
2023/11/21 07:08:42;;;;;;;;;;;;;;;;;;5029614;28;20053;-69
2023/11/21 07:11:09;;;;;;;25.40;14.82;;;;;;;;;;5045372;28;19924;-68
2023/11/21 07:13:35;;;;;;;31.02;16.05;;;;;;;;;;5016599;28;20058;-68
